LETL

Details ICAO LETL
Name Teruel PLATA
Region Spain
Timezone Europe/Madrid (UTC+1.0)
Plans Departing 5
Arriving 9
Stats Elevation 0 ft / 0 m (AMSL)
Location 40.411111° -1.218813°
Runways 1
Magnetic Variation 0.020° W
Sunrise 2017-12-18 07:24:11 UTC / 2017-12-18 08:24:11 Local
Sunset 2017-12-18 16:41:30 UTC / 2017-12-18 17:41:30 Local
Advertisement - Login to hide

Runways

ID Width Length Bearing (true) Bearing (mag) Surface Threshold Offset Overrun Length
18 148 ft / 45 m 9,277 ft / 2,828 m 177.23° 177.25° Asphalt 984 ft / 300 m 0 ft / 0 m
36 148 ft / 45 m 9,277 ft / 2,828 m 357.23° 357.25° Asphalt 164 ft / 50 m 0 ft / 0 m

Map

Weather


0- 5 10 15 20 25 30 35+ Temperature / ° C

Clouds and Precipitation
Forecast for 2017-12-18 12:00 UTC. Updated 2 hours ago

Ground ~20,000 ft ~40,000 ft Winds

METAR

LETL 181300Z AUTO 35011KT 320V020 9999 NCD 06/M02 Q1027

TAF

Not found
Warning: Do not use this data for real-world aviation or navigation. No guarantee of current accuracy is given.